Terminal Aerodrome Forecast
Issued by NWS

Home | Current Version | Previous Version | Text Only | Print | Product List | Glossary On
Versions: 1 2 3 4 5 6 7 8 9 10 11 12 13 14 15 16 17
000
FTUS43 KMPX 131142
TAFRNH
TAF
KRNH 131142Z 1312/1412 08007KT P6SM OVC120
     FM131400 35010KT P6SM VCSH OVC015
      TEMPO 1314/1317 3SM -FZDZSN BR OVC012
     FM131700 33015G23KT P6SM VCSH OVC010
     FM132300 33009KT P6SM BKN025 OVC060
     FM140300 32004KT P6SM OVC025=

USA.gov is the U.S. government's official web portal to all federal, state and local government web resources and services.